Terminal Aerodrome Forecast
Issued by NWS

Home | Current Version | Previous Version | Graphics & Text | Print | Product List | Glossary On
Versions: 1 2 3 4 5 6 7 8 9 10 11 12 13 14 15 16
000
FTUS43 KUNR 250800 AAB
TAFGCC
TAF AMD
KGCC 250858Z 2509/2606 31006KT P6SM SCT015
      TEMPO 2509/2512 BKN015
     FM251200 35009KT P6SM BKN035
     FM252100 06007KT P6SM SCT035 BKN080=

USA.gov is the U.S. government's official web portal to all federal, state and local government web resources and services.